createdAt,value
2023-04-23T00:00:57.387Z,0.00
2023-04-23T00:10:57.393Z,0.00
2023-04-23T00:20:57.645Z,0.00
2023-04-23T00:30:57.850Z,0.00
2023-04-23T00:40:58.153Z,0.00
2023-04-23T00:50:58.172Z,0.00
2023-04-23T01:00:58.525Z,0.00
2023-04-23T01:10:58.520Z,0.00
2023-04-23T01:20:58.770Z,0.00
2023-04-23T01:30:59.056Z,0.00
2023-04-23T01:41:01.285Z,0.00
2023-04-23T01:50:59.494Z,0.00
2023-04-23T02:00:59.806Z,0.00
2023-04-23T02:10:59.813Z,0.00
2023-04-23T02:21:00.111Z,0.00
2023-04-23T02:31:00.113Z,0.00
2023-04-23T02:41:00.342Z,0.00
2023-04-23T02:51:00.604Z,0.00
2023-04-23T03:01:00.796Z,0.00
2023-04-23T03:11:00.738Z,0.00
2023-04-23T03:21:00.977Z,0.00
2023-04-23T03:31:01.324Z,0.00
2023-04-23T03:41:01.451Z,0.00
2023-04-23T03:51:01.457Z,0.00
2023-04-23T04:01:01.822Z,0.00
2023-04-23T04:11:01.820Z,0.00
2023-04-23T04:21:03.130Z,0.00
2023-04-23T04:31:02.130Z,0.00
2023-04-23T04:41:02.370Z,0.00
2023-04-23T04:51:02.568Z,0.00
2023-04-23T05:01:04.789Z,0.00
2023-04-23T05:11:02.989Z,0.00
2023-04-23T05:21:03.209Z,0.00
2023-04-23T05:31:03.406Z,0.00
2023-04-23T05:41:03.914Z,0.00
2023-04-23T05:51:03.735Z,0.00
2023-04-23T06:01:04.048Z,5.62
2023-04-23T06:11:04.222Z,0.00
2023-04-23T06:21:04.308Z,5.62
2023-04-23T06:31:09.404Z,5.62
2023-04-23T06:41:04.423Z,5.62
2023-04-23T06:51:07.835Z,5.62
2023-04-23T07:01:04.868Z,5.62
2023-04-23T07:11:05.161Z,11.25
2023-04-23T07:21:05.151Z,11.25
2023-04-23T07:31:05.418Z,16.88
2023-04-23T07:41:05.627Z,28.12
2023-04-23T07:51:05.894Z,45.00
2023-04-23T08:01:05.912Z,50.62
2023-04-23T08:11:06.166Z,67.50
2023-04-23T08:21:06.357Z,50.62
2023-04-23T08:31:19.046Z,50.62
2023-04-23T08:41:07.690Z,163.12
2023-04-23T08:51:07.008Z,78.75
2023-04-23T09:01:07.038Z,73.12
2023-04-23T09:11:10.439Z,123.75
2023-04-23T09:21:07.460Z,78.75
2023-04-23T09:31:07.732Z,90.00
2023-04-23T09:41:07.726Z,163.12
2023-04-23T09:51:08.017Z,118.12
2023-04-23T10:01:08.095Z,146.25
2023-04-23T10:11:20.042Z,163.12
2023-04-23T10:21:09.201Z,151.88
2023-04-23T10:31:08.502Z,157.50
2023-04-23T10:41:08.480Z,191.25
2023-04-23T10:51:35.368Z,157.50
2023-04-23T11:01:09.761Z,101.25
2023-04-23T11:11:09.082Z,73.12
2023-04-23T11:21:09.079Z,78.75
2023-04-23T11:31:11.291Z,67.50
2023-04-23T11:41:09.522Z,56.25
2023-04-23T11:51:09.805Z,56.25
2023-04-23T12:01:09.800Z,78.75
2023-04-23T12:11:10.096Z,157.50
2023-04-23T12:21:10.107Z,208.12
2023-04-23T12:31:10.367Z,123.75
2023-04-23T12:41:10.683Z,236.25
2023-04-23T12:51:10.793Z,202.50
2023-04-23T13:01:10.899Z,230.62
2023-04-23T13:11:10.994Z,112.50
2023-04-23T13:21:11.097Z,185.62
2023-04-23T13:31:11.169Z,174.38
2023-04-23T13:41:11.375Z,168.75
2023-04-23T13:51:26.089Z,174.38
2023-04-23T14:01:12.712Z,157.50
2023-04-23T14:11:12.008Z,67.50
2023-04-23T14:21:13.605Z,123.75
2023-04-23T14:31:12.238Z,112.50
2023-04-23T14:41:12.212Z,61.88
2023-04-23T14:51:12.546Z,39.38
2023-04-23T15:01:12.551Z,28.12
2023-04-23T15:11:12.801Z,22.50
2023-04-23T15:21:12.980Z,11.25
2023-04-23T15:31:13.312Z,11.25
2023-04-23T15:41:13.282Z,11.25
2023-04-23T15:51:13.558Z,22.50
2023-04-23T16:01:13.578Z,16.88
2023-04-23T16:11:13.978Z,11.25
2023-04-23T16:21:14.031Z,5.62
2023-04-23T16:31:14.307Z,5.62
2023-04-23T16:41:14.356Z,0.00
2023-04-23T16:51:14.668Z,0.00
2023-04-23T17:01:14.807Z,0.00
2023-04-23T17:11:15.072Z,0.00
2023-04-23T17:21:16.049Z,0.00
2023-04-23T17:31:15.210Z,0.00
2023-04-23T17:41:15.555Z,0.00
2023-04-23T17:51:15.681Z,0.00
2023-04-23T18:01:16.179Z,0.00
2023-04-23T18:11:16.443Z,0.00
2023-04-23T18:21:16.211Z,0.00
2023-04-23T18:31:16.810Z,0.00
2023-04-23T18:41:16.794Z,0.00
2023-04-23T18:51:16.926Z,0.00
2023-04-23T19:01:16.848Z,0.00
2023-04-23T19:11:17.331Z,0.00
2023-04-23T19:21:17.243Z,0.00
2023-04-23T19:31:17.814Z,0.00
2023-04-23T19:41:17.970Z,0.00
2023-04-23T19:51:18.054Z,0.00
2023-04-23T20:01:19.767Z,0.00
2023-04-23T20:11:22.466Z,0.00
2023-04-23T20:21:18.622Z,0.00
2023-04-23T20:31:20.081Z,0.00
2023-04-23T20:41:18.842Z,0.00
2023-04-23T20:51:18.803Z,0.00
2023-04-23T21:01:18.892Z,0.00
2023-04-23T21:11:19.164Z,0.00
2023-04-23T21:21:19.153Z,0.00
2023-04-23T21:31:19.502Z,0.00
2023-04-23T21:41:19.482Z,0.00
2023-04-23T21:51:19.696Z,0.00
2023-04-23T22:01:19.971Z,0.00
2023-04-23T22:11:20.162Z,0.00
2023-04-23T22:21:20.371Z,0.00
2023-04-23T22:31:20.654Z,0.00
2023-04-23T22:41:20.849Z,0.00
2023-04-23T22:51:21.121Z,0.00
2023-04-23T23:01:21.137Z,0.00
2023-04-23T23:11:21.389Z,0.00
2023-04-23T23:21:21.673Z,0.00
2023-04-23T23:31:23.734Z,0.00
2023-04-23T23:41:21.946Z,0.00
2023-04-23T23:51:22.267Z,0.00
